sensor_id;sensor_type;location;lat;lon;timestamp;pressure;altitude;pressure_sealevel;temperature;humidity
32324;BME280;25666;44.350;9.222;2023-02-20T00:01:15;102610.72;;;12.08;100.00
32324;BME280;25666;44.350;9.222;2023-02-20T00:03:41;102616.03;;;11.96;100.00
32324;BME280;25666;44.350;9.222;2023-02-20T00:06:06;102623.56;;;11.96;100.00
32324;BME280;25666;44.350;9.222;2023-02-20T00:08:32;102623.84;;;12.08;100.00
32324;BME280;25666;44.350;9.222;2023-02-20T00:10:57;102626.63;;;12.08;100.00
32324;BME280;25666;44.350;9.222;2023-02-20T00:13:23;102629.41;;;12.08;100.00
32324;BME280;25666;44.350;9.222;2023-02-20T00:15:48;102627.75;;;12.07;100.00
32324;BME280;25666;44.350;9.222;2023-02-20T00:18:14;102630.03;;;12.05;100.00
32324;BME280;25666;44.350;9.222;2023-02-20T00:20:39;102636.31;;;12.10;100.00
32324;BME280;25666;44.350;9.222;2023-02-20T00:23:05;102635.13;;;12.03;100.00
32324;BME280;25666;44.350;9.222;2023-02-20T00:25:30;102624.50;;;11.91;100.00
32324;BME280;25666;44.350;9.222;2023-02-20T00:27:56;102630.28;;;11.81;100.00
32324;BME280;25666;44.350;9.222;2023-02-20T00:30:22;102639.59;;;11.90;100.00
32324;BME280;25666;44.350;9.222;2023-02-20T00:32:51;102629.16;;;11.96;100.00
32324;BME280;25666;44.350;9.222;2023-02-20T00:35:18;102637.91;;;12.03;100.00
32324;BME280;25666;44.350;9.222;2023-02-20T00:37:47;102643.94;;;11.96;100.00
32324;BME280;25666;44.350;9.222;2023-02-20T00:40:14;102639.06;;;12.02;100.00
32324;BME280;25666;44.350;9.222;2023-02-20T00:42:39;102638.22;;;12.01;100.00
32324;BME280;25666;44.350;9.222;2023-02-20T00:45:06;102627.75;;;12.07;100.00
32324;BME280;25666;44.350;9.222;2023-02-20T00:47:31;102628.91;;;12.06;100.00
32324;BME280;25666;44.350;9.222;2023-02-20T00:49:57;102619.09;;;12.08;100.00
32324;BME280;25666;44.350;9.222;2023-02-20T00:52:22;102626.84;;;11.98;100.00
32324;BME280;25666;44.350;9.222;2023-02-20T00:54:48;102622.31;;;12.02;100.00
32324;BME280;25666;44.350;9.222;2023-02-20T00:57:14;102616.41;;;12.03;100.00
32324;BME280;25666;44.350;9.222;2023-02-20T00:59:39;102629.09;;;12.09;100.00
32324;BME280;25666;44.350;9.222;2023-02-20T01:02:05;102632.72;;;12.10;100.00
32324;BME280;25666;44.350;9.222;2023-02-20T01:04:31;102626.50;;;12.13;100.00
32324;BME280;25666;44.350;9.222;2023-02-20T01:06:56;102626.13;;;12.06;100.00
32324;BME280;25666;44.350;9.222;2023-02-20T01:09:21;102620.41;;;12.11;100.00
32324;BME280;25666;44.350;9.222;2023-02-20T01:11:47;102614.81;;;12.11;100.00
32324;BME280;25666;44.350;9.222;2023-02-20T01:14:13;102611.53;;;12.09;100.00
32324;BME280;25666;44.350;9.222;2023-02-20T01:16:46;102608.44;;;11.97;100.00
32324;BME280;25666;44.350;9.222;2023-02-20T01:19:12;102610.59;;;12.00;100.00
32324;BME280;25666;44.350;9.222;2023-02-20T01:21:37;102611.88;;;11.94;100.00
32324;BME280;25666;44.350;9.222;2023-02-20T01:24:03;102618.97;;;12.00;100.00
32324;BME280;25666;44.350;9.222;2023-02-20T01:26:28;102624.97;;;12.07;100.00
32324;BME280;25666;44.350;9.222;2023-02-20T01:28:55;102620.72;;;12.09;100.00
32324;BME280;25666;44.350;9.222;2023-02-20T01:31:21;102615.75;;;12.06;100.00
32324;BME280;25666;44.350;9.222;2023-02-20T01:33:47;102613.41;;;12.00;100.00
32324;BME280;25666;44.350;9.222;2023-02-20T01:36:13;102606.00;;;11.95;100.00
32324;BME280;25666;44.350;9.222;2023-02-20T01:38:39;102608.97;;;11.99;100.00
32324;BME280;25666;44.350;9.222;2023-02-20T01:41:09;102610.00;;;12.03;100.00
32324;BME280;25666;44.350;9.222;2023-02-20T01:43:35;102599.44;;;12.00;100.00
32324;BME280;25666;44.350;9.222;2023-02-20T01:49:09;102589.44;;;11.99;100.00
32324;BME280;25666;44.350;9.222;2023-02-20T01:51:40;102592.25;;;11.99;100.00
32324;BME280;25666;44.350;9.222;2023-02-20T01:54:10;102595.72;;;12.04;100.00
32324;BME280;25666;44.350;9.222;2023-02-20T01:56:37;102594.91;;;12.04;100.00
32324;BME280;25666;44.350;9.222;2023-02-20T01:59:04;102585.38;;;12.05;100.00
32324;BME280;25666;44.350;9.222;2023-02-20T02:01:32;102591.59;;;12.02;100.00
32324;BME280;25666;44.350;9.222;2023-02-20T02:04:01;102593.28;;;11.89;100.00
32324;BME280;25666;44.350;9.222;2023-02-20T02:06:29;102597.22;;;11.88;100.00
32324;BME280;25666;44.350;9.222;2023-02-20T02:08:58;102592.34;;;11.94;100.00
32324;BME280;25666;44.350;9.222;2023-02-20T02:11:27;102590.50;;;11.89;100.00
32324;BME280;25666;44.350;9.222;2023-02-20T02:13:54;102592.16;;;11.90;100.00
32324;BME280;25666;44.350;9.222;2023-02-20T02:21:50;102595.47;;;11.78;100.00
32324;BME280;25666;44.350;9.222;2023-02-20T02:24:50;102594.44;;;11.88;100.00
32324;BME280;25666;44.350;9.222;2023-02-20T02:38:50;102590.28;;;11.99;100.00
32324;BME280;25666;44.350;9.222;2023-02-20T02:41:31;102588.63;;;11.98;100.00
32324;BME280;25666;44.350;9.222;2023-02-20T02:44:21;102593.28;;;11.89;100.00
32324;BME280;25666;44.350;9.222;2023-02-20T02:47:01;102600.22;;;11.92;100.00
32324;BME280;25666;44.350;9.222;2023-02-20T02:49:46;102598.69;;;11.86;100.00
32324;BME280;25666;44.350;9.222;2023-02-20T02:52:14;102600.53;;;11.90;100.00
32324;BME280;25666;44.350;9.222;2023-02-20T02:55:01;102601.03;;;11.92;100.00
32324;BME280;25666;44.350;9.222;2023-02-20T02:57:27;102597.91;;;11.94;100.00
32324;BME280;25666;44.350;9.222;2023-02-20T02:59:59;102598.94;;;11.98;100.00
32324;BME280;25666;44.350;9.222;2023-02-20T03:02:29;102601.97;;;11.88;100.00
32324;BME280;25666;44.350;9.222;2023-02-20T03:04:57;102600.44;;;11.81;100.00
32324;BME280;25666;44.350;9.222;2023-02-20T03:07:27;102595.69;;;11.82;100.00
32324;BME280;25666;44.350;9.222;2023-02-20T03:10:15;102592.97;;;11.91;100.00
32324;BME280;25666;44.350;9.222;2023-02-20T03:12:48;102591.13;;;11.86;100.00
32324;BME280;25666;44.350;9.222;2023-02-20T03:15:25;102604.56;;;11.84;100.00
32324;BME280;25666;44.350;9.222;2023-02-20T03:20:37;102601.34;;;11.91;100.00
32324;BME280;25666;44.350;9.222;2023-02-20T03:23:09;102603.31;;;11.90;100.00
32324;BME280;25666;44.350;9.222;2023-02-20T03:26:04;102604.75;;;11.88;100.00
32324;BME280;25666;44.350;9.222;2023-02-20T03:28:40;102613.75;;;11.85;100.00
32324;BME280;25666;44.350;9.222;2023-02-20T03:31:16;102612.34;;;11.87;100.00
32324;BME280;25666;44.350;9.222;2023-02-20T03:33:48;102611.78;;;11.85;100.00
32324;BME280;25666;44.350;9.222;2023-02-20T03:37:22;102613.13;;;11.88;100.00
32324;BME280;25666;44.350;9.222;2023-02-20T03:39:44;102620.50;;;11.84;100.00
32324;BME280;25666;44.350;9.222;2023-02-20T03:42:34;102619.66;;;11.83;100.00
32324;BME280;25666;44.350;9.222;2023-02-20T03:45:27;102622.31;;;11.88;100.00
32324;BME280;25666;44.350;9.222;2023-02-20T03:47:58;102625.81;;;11.94;100.00
32324;BME280;25666;44.350;9.222;2023-02-20T03:50:24;102615.19;;;11.96;100.00
32324;BME280;25666;44.350;9.222;2023-02-20T03:52:51;102617.56;;;11.89;100.00
32324;BME280;25666;44.350;9.222;2023-02-20T03:55:17;102628.75;;;11.75;100.00
32324;BME280;25666;44.350;9.222;2023-02-20T03:57:48;102637.44;;;11.87;100.00
32324;BME280;25666;44.350;9.222;2023-02-20T04:00:21;102633.06;;;11.95;100.00
32324;BME280;25666;44.350;9.222;2023-02-20T04:02:52;102636.81;;;11.90;100.00
32324;BME280;25666;44.350;9.222;2023-02-20T04:05:23;102639.59;;;11.90;100.00
32324;BME280;25666;44.350;9.222;2023-02-20T04:07:55;102639.91;;;11.89;100.00
32324;BME280;25666;44.350;9.222;2023-02-20T04:10:31;102646.63;;;11.88;100.00
32324;BME280;25666;44.350;9.222;2023-02-20T04:12:59;102647.97;;;11.90;100.00
32324;BME280;25666;44.350;9.222;2023-02-20T04:15:27;102642.19;;;11.87;100.00
32324;BME280;25666;44.350;9.222;2023-02-20T04:17:58;102644.84;;;11.92;100.00
32324;BME280;25666;44.350;9.222;2023-02-20T04:20:25;102649.59;;;11.91;100.00
32324;BME280;25666;44.350;9.222;2023-02-20T04:23:17;102658.31;;;11.90;100.00
32324;BME280;25666;44.350;9.222;2023-02-20T04:25:50;102657.41;;;11.80;100.00
32324;BME280;25666;44.350;9.222;2023-02-20T04:28:17;102653.16;;;11.83;100.00
32324;BME280;25666;44.350;9.222;2023-02-20T04:30:50;102660.69;;;11.82;100.00
32324;BME280;25666;44.350;9.222;2023-02-20T04:33:17;102661.72;;;11.87;100.00
32324;BME280;25666;44.350;9.222;2023-02-20T04:35:44;102666.25;;;11.82;100.00
32324;BME280;25666;44.350;9.222;2023-02-20T04:38:10;102664.72;;;11.90;100.00
32324;BME280;25666;44.350;9.222;2023-02-20T04:40:36;102666.19;;;11.74;100.00
32324;BME280;25666;44.350;9.222;2023-02-20T04:43:02;102665.34;;;11.73;100.00
32324;BME280;25666;44.350;9.222;2023-02-20T04:45:28;102669.47;;;11.76;100.00
32324;BME280;25666;44.350;9.222;2023-02-20T04:47:54;102669.56;;;11.85;100.00
32324;BME280;25666;44.350;9.222;2023-02-20T04:50:31;102672.69;;;11.83;100.00
32324;BME280;25666;44.350;9.222;2023-02-20T04:52:57;102668.94;;;11.88;100.00
32324;BME280;25666;44.350;9.222;2023-02-20T04:55:25;102666.88;;;11.93;100.00
32324;BME280;25666;44.350;9.222;2023-02-20T04:57:53;102672.56;;;11.88;100.00
32324;BME280;25666;44.350;9.222;2023-02-20T05:00:22;102676.00;;;11.71;100.00
32324;BME280;25666;44.350;9.222;2023-02-20T05:02:48;102681.97;;;11.78;100.00
32324;BME280;25666;44.350;9.222;2023-02-20T05:07:41;102688.38;;;11.79;100.00
32324;BME280;25666;44.350;9.222;2023-02-20T05:10:07;102689.00;;;11.76;100.00
32324;BME280;25666;44.350;9.222;2023-02-20T05:12:33;102696.44;;;11.80;100.00
32324;BME280;25666;44.350;9.222;2023-02-20T05:14:58;102700.56;;;11.83;100.00
32324;BME280;25666;44.350;9.222;2023-02-20T05:17:24;102702.13;;;11.75;100.00
32324;BME280;25666;44.350;9.222;2023-02-20T05:19:49;102699.94;;;11.72;100.00
32324;BME280;25666;44.350;9.222;2023-02-20T05:22:15;102703.47;;;11.78;100.00
32324;BME280;25666;44.350;9.222;2023-02-20T05:24:47;102708.94;;;11.83;100.00
32324;BME280;25666;44.350;9.222;2023-02-20T05:27:14;102705.44;;;11.77;100.00
32324;BME280;25666;44.350;9.222;2023-02-20T05:29:48;102708.94;;;11.83;100.00
32324;BME280;25666;44.350;9.222;2023-02-20T05:32:14;102706.06;;;11.74;100.00
32324;BME280;25666;44.350;9.222;2023-02-20T05:34:42;102710.91;;;11.82;100.00
32324;BME280;25666;44.350;9.222;2023-02-20T05:37:08;102716.19;;;11.70;100.00
32324;BME280;25666;44.350;9.222;2023-02-20T05:39:34;102721.22;;;11.55;100.00
32324;BME280;25666;44.350;9.222;2023-02-20T05:42:00;102716.19;;;11.70;100.00
32324;BME280;25666;44.350;9.222;2023-02-20T05:44:25;102710.16;;;11.63;100.00
32324;BME280;25666;44.350;9.222;2023-02-20T05:46:51;102721.09;;;11.60;100.00
32324;BME280;25666;44.350;9.222;2023-02-20T05:49:18;102719.41;;;11.77;100.00
32324;BME280;25666;44.350;9.222;2023-02-20T05:51:43;102729.50;;;11.73;100.00
32324;BME280;25666;44.350;9.222;2023-02-20T05:54:09;102735.31;;;11.77;100.00
32324;BME280;25666;44.350;9.222;2023-02-20T05:56:34;102727.59;;;11.69;100.00
32324;BME280;25666;44.350;9.222;2023-02-20T05:59:00;102727.41;;;11.65;100.00
32324;BME280;25666;44.350;9.222;2023-02-20T06:01:30;102735.97;;;11.69;100.00
32324;BME280;25666;44.350;9.222;2023-02-20T06:03:56;102729.94;;;11.80;100.00
32324;BME280;25666;44.350;9.222;2023-02-20T06:06:22;102728.22;;;11.66;100.00
32324;BME280;25666;44.350;9.222;2023-02-20T06:08:48;102736.81;;;11.69;100.00
32324;BME280;25666;44.350;9.222;2023-02-20T06:11:14;102733.34;;;11.77;100.00
32324;BME280;25666;44.350;9.222;2023-02-20T06:13:41;102743.50;;;11.68;100.00
32324;BME280;25666;44.350;9.222;2023-02-20T06:16:08;102750.59;;;11.79;100.00
32324;BME280;25666;44.350;9.222;2023-02-20T06:18:37;102755.34;;;11.79;100.00
32324;BME280;25666;44.350;9.222;2023-02-20T06:21:06;102761.75;;;11.79;100.00
32324;BME280;25666;44.350;9.222;2023-02-20T06:23:32;102765.59;;;11.84;100.00
32324;BME280;25666;44.350;9.222;2023-02-20T06:25:57;102766.94;;;11.86;100.00
32324;BME280;25666;44.350;9.222;2023-02-20T06:28:22;102771.69;;;11.86;100.00
32324;BME280;25666;44.350;9.222;2023-02-20T06:30:48;102768.25;;;11.89;100.00
32324;BME280;25666;44.350;9.222;2023-02-20T06:33:15;102771.56;;;11.91;100.00
32324;BME280;25666;44.350;9.222;2023-02-20T06:35:40;102771.06;;;11.89;100.00
32324;BME280;25666;44.350;9.222;2023-02-20T06:38:05;102770.94;;;11.94;100.00
32324;BME280;25666;44.350;9.222;2023-02-20T06:40:31;102769.19;;;11.98;100.00
32324;BME280;25666;44.350;9.222;2023-02-20T06:42:57;102777.16;;;12.04;100.00
32324;BME280;25666;44.350;9.222;2023-02-20T06:45:22;102775.06;;;12.10;100.00
32324;BME280;25666;44.350;9.222;2023-02-20T06:47:48;102784.41;;;12.05;100.00
32324;BME280;25666;44.350;9.222;2023-02-20T06:50:13;102791.31;;;12.08;100.00
32324;BME280;25666;44.350;9.222;2023-02-20T06:52:39;102787.69;;;12.07;100.00
32324;BME280;25666;44.350;9.222;2023-02-20T06:55:04;102797.94;;;11.98;100.00
32324;BME280;25666;44.350;9.222;2023-02-20T06:57:31;102798.75;;;11.99;100.00
32324;BME280;25666;44.350;9.222;2023-02-20T06:59:57;102790.38;;;11.99;100.00
32324;BME280;25666;44.350;9.222;2023-02-20T07:02:23;102798.44;;;12.00;100.00
32324;BME280;25666;44.350;9.222;2023-02-20T07:04:48;102797.50;;;12.05;100.00
32324;BME280;25666;44.350;9.222;2023-02-20T07:07:14;102803.81;;;11.97;100.00
32324;BME280;25666;44.350;9.222;2023-02-20T07:09:39;102807.22;;;12.07;100.00
32324;BME280;25666;44.350;9.222;2023-02-20T07:12:05;102804.53;;;12.16;100.00
32324;BME280;25666;44.350;9.222;2023-02-20T07:14:31;102806.94;;;12.09;100.00
32324;BME280;25666;44.350;9.222;2023-02-20T07:16:56;102809.59;;;12.14;100.00
32324;BME280;25666;44.350;9.222;2023-02-20T07:19:22;102807.53;;;12.19;100.00
32324;BME280;25666;44.350;9.222;2023-02-20T07:21:47;102817.56;;;12.20;100.00
32324;BME280;25666;44.350;9.222;2023-02-20T07:24:13;102828.44;;;12.08;100.00
32324;BME280;25666;44.350;9.222;2023-02-20T07:26:38;102824.47;;;12.09;100.00
32324;BME280;25666;44.350;9.222;2023-02-20T07:29:05;102820.38;;;12.20;100.00
32324;BME280;25666;44.350;9.222;2023-02-20T07:31:30;102822.94;;;12.17;100.00
32324;BME280;25666;44.350;9.222;2023-02-20T07:33:56;102819.53;;;12.20;100.00
32324;BME280;25666;44.350;9.222;2023-02-20T07:36:22;102823.66;;;12.22;100.00
32324;BME280;25666;44.350;9.222;2023-02-20T07:38:58;102824.06;;;12.29;100.00
32324;BME280;25666;44.350;9.222;2023-02-20T07:41:26;102834.91;;;12.31;100.00
32324;BME280;25666;44.350;9.222;2023-02-20T07:43:54;102828.13;;;12.37;100.00
32324;BME280;25666;44.350;9.222;2023-02-20T07:46:20;102837.72;;;12.45;100.00
32324;BME280;25666;44.350;9.222;2023-02-20T07:48:45;102832.84;;;12.50;100.00
32324;BME280;25666;44.350;9.222;2023-02-20T07:51:11;102841.94;;;12.56;100.00
32324;BME280;25666;44.350;9.222;2023-02-20T07:53:36;102842.94;;;12.60;100.00
32324;BME280;25666;44.350;9.222;2023-02-20T07:56:04;102847.41;;;12.61;100.00
32324;BME280;25666;44.350;9.222;2023-02-20T07:58:30;102838.41;;;12.64;100.00
32324;BME280;25666;44.350;9.222;2023-02-20T08:00:55;102838.28;;;12.69;100.00
32324;BME280;25666;44.350;9.222;2023-02-20T08:03:21;102836.31;;;12.69;100.00
32324;BME280;25666;44.350;9.222;2023-02-20T08:05:46;102834.56;;;12.73;100.00
32324;BME280;25666;44.350;9.222;2023-02-20T08:08:12;102840.78;;;12.70;100.00
32324;BME280;25666;44.350;9.222;2023-02-20T08:10:37;102834.47;;;12.65;100.00
32324;BME280;25666;44.350;9.222;2023-02-20T08:13:03;102836.66;;;12.68;100.00
32324;BME280;25666;44.350;9.222;2023-02-20T08:15:29;102840.22;;;12.82;100.00
32324;BME280;25666;44.350;9.222;2023-02-20T08:17:55;102836.59;;;12.81;100.00
32324;BME280;25666;44.350;9.222;2023-02-20T08:20:21;102838.31;;;12.91;100.00
32324;BME280;25666;44.350;9.222;2023-02-20T08:22:48;102846.81;;;13.00;100.00
32324;BME280;25666;44.350;9.222;2023-02-20T08:25:14;102837.66;;;13.08;100.00
32324;BME280;25666;44.350;9.222;2023-02-20T08:27:42;102854.53;;;13.16;100.00
32324;BME280;25666;44.350;9.222;2023-02-20T08:30:12;102847.81;;;13.17;100.00
32324;BME280;25666;44.350;9.222;2023-02-20T08:32:38;102848.81;;;13.21;100.00
32324;BME280;25666;44.350;9.222;2023-02-20T08:35:04;102844.88;;;13.22;100.00
32324;BME280;25666;44.350;9.222;2023-02-20T08:37:29;102841.78;;;13.24;100.00
32324;BME280;25666;44.350;9.222;2023-02-20T08:39:55;102847.22;;;13.29;100.00
32324;BME280;25666;44.350;9.222;2023-02-20T08:42:20;102848.44;;;13.36;100.00
32324;BME280;25666;44.350;9.222;2023-02-20T08:44:46;102847.47;;;13.41;100.00
32324;BME280;25666;44.350;9.222;2023-02-20T08:47:11;102846.84;;;13.44;100.00
32324;BME280;25666;44.350;9.222;2023-02-20T08:49:37;102838.53;;;13.53;100.00
32324;BME280;25666;44.350;9.222;2023-02-20T08:52:02;102849.38;;;13.54;100.00
32324;BME280;25666;44.350;9.222;2023-02-20T08:54:30;102839.25;;;13.67;100.00
32324;BME280;25666;44.350;9.222;2023-02-20T08:56:55;102831.69;;;13.67;100.00
32324;BME280;25666;44.350;9.222;2023-02-20T08:59:21;102830.78;;;13.80;100.00
32324;BME280;25666;44.350;9.222;2023-02-20T09:01:46;102835.13;;;13.95;100.00
32324;BME280;25666;44.350;9.222;2023-02-20T09:04:12;102824.19;;;13.85;100.00
32324;BME280;25666;44.350;9.222;2023-02-20T09:06:37;102826.41;;;13.97;100.00
32324;BME280;25666;44.350;9.222;2023-02-20T09:09:03;102820.50;;;14.07;100.00
32324;BME280;25666;44.350;9.222;2023-02-20T09:11:28;102824.66;;;14.18;100.00
32324;BME280;25666;44.350;9.222;2023-02-20T09:13:54;102819.13;;;14.35;100.00
32324;BME280;25666;44.350;9.222;2023-02-20T09:16:21;102827.25;;;14.45;100.00
32324;BME280;25666;44.350;9.222;2023-02-20T09:18:47;102812.28;;;14.58;100.00
32324;BME280;25666;44.350;9.222;2023-02-20T09:21:15;102821.34;;;14.55;100.00
32324;BME280;25666;44.350;9.222;2023-02-20T09:23:41;102815.59;;;14.69;100.00
32324;BME280;25666;44.350;9.222;2023-02-20T09:26:07;102805.53;;;14.85;100.00
32324;BME280;25666;44.350;9.222;2023-02-20T09:28:32;102805.19;;;14.95;100.00
32324;BME280;25666;44.350;9.222;2023-02-20T09:30:58;102809.66;;;15.05;100.00
32324;BME280;25666;44.350;9.222;2023-02-20T09:33:25;102806.16;;;15.16;100.00
32324;BME280;25666;44.350;9.222;2023-02-20T09:35:51;102799.41;;;15.26;100.00
32324;BME280;25666;44.350;9.222;2023-02-20T09:38:19;102804.66;;;15.36;100.00
32324;BME280;25666;44.350;9.222;2023-02-20T09:40:49;102800.19;;;15.35;100.00
32324;BME280;25666;44.350;9.222;2023-02-20T09:46:08;102798.38;;;15.47;100.00
32324;BME280;25666;44.350;9.222;2023-02-20T09:51:20;102790.28;;;15.54;100.00
32324;BME280;25666;44.350;9.222;2023-02-20T09:54:02;102785.84;;;15.53;100.00
32324;BME280;25666;44.350;9.222;2023-02-20T09:56:53;102779.56;;;15.57;100.00
32324;BME280;25666;44.350;9.222;2023-02-20T09:59:27;102777.56;;;15.57;100.00
32324;BME280;25666;44.350;9.222;2023-02-20T10:02:21;102782.50;;;15.60;100.00
32324;BME280;25666;44.350;9.222;2023-02-20T10:04:47;102775.69;;;15.78;100.00
32324;BME280;25666;44.350;9.222;2023-02-20T10:07:28;102778.97;;;15.80;100.00
32324;BME280;25666;44.350;9.222;2023-02-20T10:09:55;102784.00;;;15.66;100.00
32324;BME280;25666;44.350;9.222;2023-02-20T10:14:57;102780.38;;;15.66;100.00
32324;BME280;25666;44.350;9.222;2023-02-20T10:17:48;102774.63;;;15.53;100.00
32324;BME280;25666;44.350;9.222;2023-02-20T10:25:50;102780.91;;;15.50;100.00
32324;BME280;25666;44.350;9.222;2023-02-20T10:28:19;102776.44;;;15.49;100.00
32324;BME280;25666;44.350;9.222;2023-02-20T10:35:55;102774.94;;;15.43;100.00
32324;BME280;25666;44.350;9.222;2023-02-20T10:38:25;102777.28;;;15.33;100.00
32324;BME280;25666;44.350;9.222;2023-02-20T10:41:05;102765.88;;;15.29;100.00
32324;BME280;25666;44.350;9.222;2023-02-20T10:43:47;102763.78;;;15.18;100.00
32324;BME280;25666;44.350;9.222;2023-02-20T10:46:26;102764.25;;;15.20;100.00
32324;BME280;25666;44.350;9.222;2023-02-20T10:48:56;102766.94;;;14.99;100.00
32324;BME280;25666;44.350;9.222;2023-02-20T10:51:41;102755.53;;;15.13;100.00
32324;BME280;25666;44.350;9.222;2023-02-20T10:54:21;102751.25;;;15.15;100.00
32324;BME280;25666;44.350;9.222;2023-02-20T10:56:53;102753.41;;;15.10;100.00
32324;BME280;25666;44.350;9.222;2023-02-20T11:01:50;102741.34;;;15.09;100.00
32324;BME280;25666;44.350;9.222;2023-02-20T11:04:21;102742.00;;;15.15;100.00
32324;BME280;25666;44.350;9.222;2023-02-20T11:07:09;102736.25;;;15.02;100.00
32324;BME280;25666;44.350;9.222;2023-02-20T11:09:36;102732.78;;;15.06;100.00
32324;BME280;25666;44.350;9.222;2023-02-20T11:12:02;102737.09;;;15.03;100.00
32324;BME280;25666;44.350;9.222;2023-02-20T11:14:47;102723.72;;;15.00;100.00
32324;BME280;25666;44.350;9.222;2023-02-20T11:17:20;102719.75;;;15.10;100.00
32324;BME280;25666;44.350;9.222;2023-02-20T11:19:54;102718.09;;;15.09;100.00
32324;BME280;25666;44.350;9.222;2023-02-20T11:22:46;102712.81;;;15.07;100.00
32324;BME280;25666;44.350;9.222;2023-02-20T11:25:26;102715.09;;;15.14;100.00
32324;BME280;25666;44.350;9.222;2023-02-20T11:27:56;102711.78;;;15.20;100.00
32324;BME280;25666;44.350;9.222;2023-02-20T11:30:29;102705.66;;;15.27;100.00
32324;BME280;25666;44.350;9.222;2023-02-20T11:35:38;102699.25;;;15.18;100.00
32324;BME280;25666;44.350;9.222;2023-02-20T11:43:31;102691.16;;;15.25;100.00
32324;BME280;25666;44.350;9.222;2023-02-20T11:46:09;102681.25;;;15.27;100.00
32324;BME280;25666;44.350;9.222;2023-02-20T11:48:35;102668.53;;;15.30;100.00
32324;BME280;25666;44.350;9.222;2023-02-20T11:51:00;102679.41;;;15.31;100.00
32324;BME280;25666;44.350;9.222;2023-02-20T11:53:28;102671.97;;;15.35;100.00
32324;BME280;25666;44.350;9.222;2023-02-20T11:56:14;102672.63;;;15.32;100.00
32324;BME280;25666;44.350;9.222;2023-02-20T11:58:41;102672.78;;;15.36;100.00
32324;BME280;25666;44.350;9.222;2023-02-20T12:01:28;102670.97;;;15.40;100.00
32324;BME280;25666;44.350;9.222;2023-02-20T12:03:55;102678.72;;;15.43;100.00
32324;BME280;25666;44.350;9.222;2023-02-20T12:09:02;102679.53;;;15.43;100.00
32324;BME280;25666;44.350;9.222;2023-02-20T12:11:29;102671.13;;;15.35;100.00
32324;BME280;25666;44.350;9.222;2023-02-20T12:13:57;102667.47;;;15.43;100.00
32324;BME280;25666;44.350;9.222;2023-02-20T12:35:34;102642.72;;;15.53;100.00
32324;BME280;25666;44.350;9.222;2023-02-20T12:38:35;102636.94;;;15.50;100.00
32324;BME280;25666;44.350;9.222;2023-02-20T12:55:36;102621.44;;;15.35;100.00
32324;BME280;25666;44.350;9.222;2023-02-20T12:58:20;102618.22;;;15.25;100.00
32324;BME280;25666;44.350;9.222;2023-02-20T13:00:52;102611.06;;;15.36;100.00
32324;BME280;25666;44.350;9.222;2023-02-20T13:03:26;102613.34;;;15.42;100.00
32324;BME280;25666;44.350;9.222;2023-02-20T13:05:58;102615.13;;;15.47;100.00
32324;BME280;25666;44.350;9.222;2023-02-20T13:08:28;102617.94;;;15.47;100.00
32324;BME280;25666;44.350;9.222;2023-02-20T13:10:56;102610.03;;;15.49;100.00
32324;BME280;25666;44.350;9.222;2023-02-20T13:13:26;102614.16;;;15.43;100.00
32324;BME280;25666;44.350;9.222;2023-02-20T13:15:59;102609.53;;;15.47;100.00
32324;BME280;25666;44.350;9.222;2023-02-20T13:18:44;102609.84;;;15.45;100.00
32324;BME280;25666;44.350;9.222;2023-02-20T13:21:15;102612.84;;;15.49;100.00
32324;BME280;25666;44.350;9.222;2023-02-20T13:23:44;102608.53;;;15.43;100.00
32324;BME280;25666;44.350;9.222;2023-02-20T13:29:16;102603.41;;;15.45;100.00
32324;BME280;25666;44.350;9.222;2023-02-20T13:36:42;102601.66;;;15.32;100.00
32324;BME280;25666;44.350;9.222;2023-02-20T13:55:01;102604.75;;;15.01;100.00
32324;BME280;25666;44.350;9.222;2023-02-20T13:57:31;102606.09;;;14.95;100.00
32324;BME280;25666;44.350;9.222;2023-02-20T14:00:00;102601.97;;;15.01;100.00
32324;BME280;25666;44.350;9.222;2023-02-20T14:02:26;102597.53;;;15.00;100.00
32324;BME280;25666;44.350;9.222;2023-02-20T14:04:59;102599.69;;;14.86;100.00
32324;BME280;25666;44.350;9.222;2023-02-20T14:07:33;102601.69;;;14.94;100.00
32324;BME280;25666;44.350;9.222;2023-02-20T14:10:05;102599.50;;;14.99;100.00
32324;BME280;25666;44.350;9.222;2023-02-20T14:12:32;102607.28;;;14.94;100.00
32324;BME280;25666;44.350;9.222;2023-02-20T14:15:02;102602.81;;;14.93;100.00
32324;BME280;25666;44.350;9.222;2023-02-20T14:17:28;102604.28;;;14.99;100.00
32324;BME280;25666;44.350;9.222;2023-02-20T14:19:58;102599.19;;;14.92;100.00
32324;BME280;25666;44.350;9.222;2023-02-20T14:22:34;102611.75;;;14.86;100.00
32324;BME280;25666;44.350;9.222;2023-02-20T14:25:25;102615.38;;;14.87;100.00
32324;BME280;25666;44.350;9.222;2023-02-20T14:28:06;102612.56;;;14.87;100.00
32324;BME280;25666;44.350;9.222;2023-02-20T14:30:32;102611.28;;;14.84;100.00
32324;BME280;25666;44.350;9.222;2023-02-20T14:32:58;102606.97;;;14.87;100.00
32324;BME280;25666;44.350;9.222;2023-02-20T14:35:44;102602.50;;;14.86;100.00
32324;BME280;25666;44.350;9.222;2023-02-20T14:40:51;102608.97;;;14.78;100.00
32324;BME280;25666;44.350;9.222;2023-02-20T14:43:18;102604.03;;;14.75;100.00
32324;BME280;25666;44.350;9.222;2023-02-20T14:45:46;102606.19;;;14.78;100.00
32324;BME280;25666;44.350;9.222;2023-02-20T14:48:24;102613.91;;;14.72;100.00
32324;BME280;25666;44.350;9.222;2023-02-20T14:51:03;102609.13;;;14.73;100.00